^^
Station Historical Data
Daily Summary for October 26, 2017 Units:  Both    English   Metric
« Previous Day
Next Day »
Daily Weekly Monthly Yearly Custom
  High: Low: Average:
Temperature: TemperatureF °F /  -17.8 °C 56.8 °F /  13.8 °C 74.3 °F /  23.5 °C
Dew Point: DewpointF °F /  -17.8 °C 1.2 °F /  -17.1 °C 19.2 °F /  -7.1 °C
Humidity: Humidity% 4% 15%
Wind Speed: WindSpeedMPHmph /  0km/h - 1.5mph /  2.4km/h
Wind Gust: WindSpeedGustMPHmph /  0km/h - -
Wind- - WSW
Pressure: PressureIn in /  0 hPa 30.07 in /  1018.2 hPa -
Precipitation: 0.00 in /  0 mm    
Historical Graphs
 
 
Tabular Data for October 26, 2017
Time Temperature Dew Point Pressure Wind Wind Speed Wind Gust Humidity Rainfall Rate (Hourly) solar Conditions
TemperatureF °F /  -17.8 °C DewpointF °F /  -17.8 °C PressureInin /  0hPa Calm     Humidity% HourlyPrecipInin /  0mm SolarRadiationWatts/m^2 W/m2 Conditions
00:02 69.8 °F /  21 °C 29.3 °F /  -1.5 °C 30.14in /  1020.5hPa Calm     22% 0.00in /  0mm 0.0 W/m2
00:07 69.6 °F /  20.9 °C 29.1 °F /  -1.6 °C 30.14in /  1020.5hPa Calm     22% 0.00in /  0mm 0.0 W/m2
00:12 69.4 °F /  20.8 °C 28.9 °F /  -1.7 °C 30.14in /  1020.5hPa Calm     22% 0.00in /  0mm 0.0 W/m2
00:17 69.3 °F /  20.7 °C 28.8 °F /  -1.8 °C 30.14in /  1020.5hPa Calm     22% 0.00in /  0mm 0.0 W/m2
00:22 69.1 °F /  20.6 °C 28.6 °F /  -1.9 °C 30.13in /  1020.2hPa Calm     22% 0.00in /  0mm 0.0 W/m2
00:28 68.7 °F /  20.4 °C 29.5 °F /  -1.4 °C 30.13in /  1020.2hPa Calm     23% 0.00in /  0mm 0.0 W/m2
00:33 68.7 °F /  20.4 °C 29.5 °F /  -1.4 °C 30.13in /  1020.2hPa Calm     23% 0.00in /  0mm 0.0 W/m2
00:38 68.5 °F /  20.3 °C 29.3 °F /  -1.5 °C 30.13in /  1020.2hPa Calm     23% 0.00in /  0mm 0.0 W/m2
00:48 68.2 °F /  20.1 °C 28.9 °F /  -1.7 °C 30.13in /  1020.2hPa Calm     23% 0.00in /  0mm 0.0 W/m2
00:54 67.8 °F /  19.9 °C 27.5 °F /  -2.5 °C 30.13in /  1020.2hPa Calm     22% 0.00in /  0mm 0.0 W/m2
00:59 67.6 °F /  19.8 °C 28.6 °F /  -1.9 °C 30.13in /  1020.2hPa Calm     23% 0.00in /  0mm 0.0 W/m2
01:05 67.6 °F /  19.8 °C 28.6 °F /  -1.9 °C 30.13in /  1020.2hPa Calm     23% 0.00in /  0mm 0.0 W/m2
01:10 67.5 °F /  19.7 °C 28.4 °F /  -2 °C 30.13in /  1020.2hPa Calm     23% 0.00in /  0mm 0.0 W/m2
01:15 67.5 °F /  19.7 °C 28.4 °F /  -2 °C 30.13in /  1020.2hPa Calm     23% 0.00in /  0mm 0.0 W/m2
01:20 67.5 °F /  19.7 °C 30.4 °F /  -0.9 °C 30.12in /  1019.9hPa Calm     25% 0.00in /  0mm 0.0 W/m2
01:25 67.3 °F /  19.6 °C 29.3 °F /  -1.5 °C 30.12in /  1019.9hPa Calm     24% 0.00in /  0mm 0.0 W/m2
01:30 67.3 °F /  19.6 °C 29.3 °F /  -1.5 °C 30.12in /  1019.9hPa Calm     24% 0.00in /  0mm 0.0 W/m2
01:35 67.1 °F /  19.5 °C 30.0 °F /  -1.1 °C 30.12in /  1019.9hPa Calm     25% 0.00in /  0mm 0.0 W/m2
01:40 67.1 °F /  19.5 °C 30.0 °F /  -1.1 °C 30.12in /  1019.9hPa Calm     25% 0.00in /  0mm 0.0 W/m2
01:45 66.9 °F /  19.4 °C 30.0 °F /  -1.1 °C 30.11in /  1019.5hPa Calm     25% 0.00in /  0mm 0.0 W/m2
01:51 66.9 °F /  19.4 °C 30.0 °F /  -1.1 °C 30.11in /  1019.5hPa Calm     25% 0.00in /  0mm 0.0 W/m2
01:56 66.7 °F /  19.3 °C 29.8 °F /  -1.2 °C 30.11in /  1019.5hPa Calm     25% 0.00in /  0mm 0.0 W/m2
02:01 66.6 °F /  19.2 °C 29.7 °F /  -1.3 °C 30.11in /  1019.5hPa Calm     25% 0.00in /  0mm 0.0 W/m2
02:06 66.6 °F /  19.2 °C 29.7 °F /  -1.3 °C 30.11in /  1019.5hPa Calm     25% 0.00in /  0mm 0.0 W/m2
02:11 66.4 °F /  19.1 °C 28.4 °F /  -2 °C 30.11in /  1019.5hPa Calm     24% 0.00in /  0mm 0.0 W/m2
02:16 66.2 °F /  19 °C 28.4 °F /  -2 °C 30.11in /  1019.5hPa Calm     24% 0.00in /  0mm 0.0 W/m2
02:21 66.0 °F /  18.9 °C 28.2 °F /  -2.1 °C 30.11in /  1019.5hPa Calm     24% 0.00in /  0mm 0.0 W/m2
02:27 66.0 °F /  18.9 °C 28.2 °F /  -2.1 °C 30.11in /  1019.5hPa Calm     24% 0.00in /  0mm 0.0 W/m2
02:32 66.0 °F /  18.9 °C 28.2 °F /  -2.1 °C 30.11in /  1019.5hPa Calm     24% 0.00in /  0mm 0.0 W/m2
02:37 66.0 °F /  18.9 °C 28.2 °F /  -2.1 °C 30.11in /  1019.5hPa Calm     24% 0.00in /  0mm 0.0 W/m2
02:43 66.0 °F /  18.9 °C 28.2 °F /  -2.1 °C 30.10in /  1019.2hPa Calm     24% 0.00in /  0mm 0.0 W/m2
02:48 66.0 °F /  18.9 °C 28.2 °F /  -2.1 °C 30.10in /  1019.2hPa Calm     24% 0.00in /  0mm 0.0 W/m2
02:53 66.0 °F /  18.9 °C 28.2 °F /  -2.1 °C 30.11in /  1019.5hPa Calm     24% 0.00in /  0mm 0.0 W/m2
02:58 66.0 °F /  18.9 °C 28.2 °F /  -2.1 °C 30.11in /  1019.5hPa Calm     24% 0.00in /  0mm 0.0 W/m2
03:03 65.8 °F /  18.8 °C 28.0 °F /  -2.2 °C 30.11in /  1019.5hPa Calm     24% 0.00in /  0mm 0.0 W/m2
03:08 65.8 °F /  18.8 °C 28.0 °F /  -2.2 °C 30.11in /  1019.5hPa Calm     24% 0.00in /  0mm 0.0 W/m2
03:13 65.7 °F /  18.7 °C 27.9 °F /  -2.3 °C 30.11in /  1019.5hPa Calm     24% 0.00in /  0mm 0.0 W/m2
03:18 65.5 °F /  18.6 °C 27.7 °F /  -2.4 °C 30.11in /  1019.5hPa Calm     24% 0.00in /  0mm 0.0 W/m2
03:23 65.3 °F /  18.5 °C 27.5 °F /  -2.5 °C 30.11in /  1019.5hPa Calm     24% 0.00in /  0mm 0.0 W/m2
03:29 65.1 °F /  18.4 °C 27.5 °F /  -2.5 °C 30.11in /  1019.5hPa Calm     24% 0.00in /  0mm 0.0 W/m2
03:34 64.9 °F /  18.3 °C 27.3 °F /  -2.6 °C 30.11in /  1019.5hPa Calm     24% 0.00in /  0mm 0.0 W/m2
03:39 64.8 °F /  18.2 °C 28.0 °F /  -2.2 °C 30.11in /  1019.5hPa Calm     25% 0.00in /  0mm 0.0 W/m2
03:44 64.6 °F /  18.1 °C 28.0 °F /  -2.2 °C 30.11in /  1019.5hPa Calm     25% 0.00in /  0mm 0.0 W/m2
03:49 64.2 °F /  17.9 °C 27.7 °F /  -2.4 °C 30.11in /  1019.5hPa Calm     25% 0.00in /  0mm 0.0 W/m2
03:54 64.0 °F /  17.8 °C 27.5 °F /  -2.5 °C 30.10in /  1019.2hPa Calm     25% 0.00in /  0mm 0.0 W/m2
03:59 63.7 °F /  17.6 °C 28.2 °F /  -2.1 °C 30.10in /  1019.2hPa Calm     26% 0.00in /  0mm 0.0 W/m2
04:04 63.3 °F /  17.4 °C 27.9 °F /  -2.3 °C 30.10in /  1019.2hPa Calm     26% 0.00in /  0mm 0.0 W/m2
04:09 63.1 °F /  17.3 °C 27.7 °F /  -2.4 °C 30.11in /  1019.5hPa Calm     26% 0.00in /  0mm 0.0 W/m2
04:15 63.0 °F /  17.2 °C 27.5 °F /  -2.5 °C 30.10in /  1019.2hPa Calm     26% 0.00in /  0mm 0.0 W/m2
04:20 62.6 °F /  17 °C 28.2 °F /  -2.1 °C 30.11in /  1019.5hPa Calm     27% 0.00in /  0mm 0.0 W/m2
04:25 62.2 °F /  16.8 °C 27.9 °F /  -2.3 °C 30.11in /  1019.5hPa Calm     27% 0.00in /  0mm 0.0 W/m2
04:30 62.1 °F /  16.7 °C 26.8 °F /  -2.9 °C 30.11in /  1019.5hPa Calm     26% 0.00in /  0mm 0.0 W/m2
04:35 61.7 °F /  16.5 °C 26.4 °F /  -3.1 °C 30.11in /  1019.5hPa Calm     26% 0.00in /  0mm 0.0 W/m2
04:45 61.2 °F /  16.2 °C 26.1 °F /  -3.3 °C 30.11in /  1019.5hPa Calm     26% 0.00in /  0mm 0.0 W/m2
04:50 60.8 °F /  16 °C 26.6 °F /  -3 °C 30.11in /  1019.5hPa Calm     27% 0.00in /  0mm 0.0 W/m2
04:55 60.4 °F /  15.8 °C 25.3 °F /  -3.7 °C 30.11in /  1019.5hPa Calm     26% 0.00in /  0mm 0.0 W/m2
05:01 60.1 °F /  15.6 °C 26.1 °F /  -3.3 °C 30.11in /  1019.5hPa Calm     27% 0.00in /  0mm 0.0 W/m2
05:06 59.5 °F /  15.3 °C 25.5 °F /  -3.6 °C 30.11in /  1019.5hPa Calm     27% 0.00in /  0mm 0.0 W/m2
05:11 59.4 °F /  15.2 °C 25.3 °F /  -3.7 °C 30.11in /  1019.5hPa Calm     27% 0.00in /  0mm 0.0 W/m2
05:16 59.2 °F /  15.1 °C 24.3 °F /  -4.3 °C 30.11in /  1019.5hPa Calm     26% 0.00in /  0mm 0.0 W/m2
05:21 58.8 °F /  14.9 °C 25.0 °F /  -3.9 °C 30.12in /  1019.9hPa Calm     27% 0.00in /  0mm 0.0 W/m2
05:26 58.6 °F /  14.8 °C 24.8 °F /  -4 °C 30.12in /  1019.9hPa Calm     27% 0.00in /  0mm 0.0 W/m2
05:31 58.5 °F /  14.7 °C 24.6 °F /  -4.1 °C 30.12in /  1019.9hPa Calm     27% 0.00in /  0mm 0.0 W/m2
05:36 58.3 °F /  14.6 °C 25.3 °F /  -3.7 °C 30.12in /  1019.9hPa Calm     28% 0.00in /  0mm 0.0 W/m2
05:41 58.1 °F /  14.5 °C 26.1 °F /  -3.3 °C 30.12in /  1019.9hPa Calm     29% 0.00in /  0mm 0.0 W/m2
05:46 57.9 °F /  14.4 °C 24.1 °F /  -4.4 °C 30.12in /  1019.9hPa Calm     27% 0.00in /  0mm 0.0 W/m2
05:52 57.7 °F /  14.3 °C 23.9 °F /  -4.5 °C 30.13in /  1020.2hPa Calm     27% 0.00in /  0mm 0.0 W/m2
05:57 57.6 °F /  14.2 °C 24.6 °F /  -4.1 °C 30.13in /  1020.2hPa Calm     28% 0.00in /  0mm 0.0 W/m2
06:02 57.4 °F /  14.1 °C 24.6 °F /  -4.1 °C 30.13in /  1020.2hPa Calm   1.0mph /  1.6km/h 28% 0.00in /  0mm 0.0 W/m2
06:07 57.0 °F /  13.9 °C 25.0 °F /  -3.9 °C 30.13in /  1020.2hPa Calm     29% 0.00in /  0mm 0.0 W/m2
06:12 57.0 °F /  13.9 °C 23.4 °F /  -4.8 °C 30.13in /  1020.2hPa Calm     27% 0.00in /  0mm 0.0 W/m2
06:17 57.0 °F /  13.9 °C 24.3 °F /  -4.3 °C 30.14in /  1020.5hPa Calm     28% 0.00in /  0mm 5.0 W/m2
06:22 56.8 °F /  13.8 °C 25.0 °F /  -3.9 °C 30.14in /  1020.5hPa Calm     29% 0.00in /  0mm 9.0 W/m2
06:27 56.8 °F /  13.8 °C 25.0 °F /  -3.9 °C 30.14in /  1020.5hPa Calm     29% 0.00in /  0mm 12.0 W/m2
06:33 57.0 °F /  13.9 °C 24.3 °F /  -4.3 °C 30.14in /  1020.5hPa Calm   1.0mph /  1.6km/h 28% 0.00in /  0mm 14.0 W/m2
06:38 57.0 °F /  13.9 °C 22.5 °F /  -5.3 °C 30.14in /  1020.5hPa East 0.9mph /  1.4km/h 1.0mph /  1.6km/h 26% 0.00in /  0mm 16.0 W/m2
06:43 57.4 °F /  14.1 °C 22.8 °F /  -5.1 °C 30.14in /  1020.5hPa Calm   1.0mph /  1.6km/h 26% 0.00in /  0mm 19.0 W/m2
06:48 57.6 °F /  14.2 °C 23.0 °F /  -5 °C 30.14in /  1020.5hPa Calm   4.0mph /  6.4km/h 26% 0.00in /  0mm 21.0 W/m2
06:53 57.7 °F /  14.3 °C 22.1 °F /  -5.5 °C 30.14in /  1020.5hPa NE 0.9mph /  1.4km/h 2.0mph /  3.2km/h 25% 0.00in /  0mm 23.0 W/m2
06:58 58.3 °F /  14.6 °C 22.6 °F /  -5.2 °C 30.15in /  1020.9hPa East 0.9mph /  1.4km/h 3.0mph /  4.8km/h 25% 0.00in /  0mm 25.0 W/m2
07:03 58.6 °F /  14.8 °C 23.9 °F /  -4.5 °C 30.15in /  1020.9hPa ENE 4.0mph /  6.4km/h 4.0mph /  6.4km/h 26% 0.00in /  0mm 28.0 W/m2
07:08 59.2 °F /  15.1 °C 23.4 °F /  -4.8 °C 30.15in /  1020.9hPa Calm   4.0mph /  6.4km/h 25% 0.00in /  0mm 28.0 W/m2
07:14 59.4 °F /  15.2 °C 24.4 °F /  -4.2 °C 30.15in /  1020.9hPa Calm   1.0mph /  1.6km/h 26% 0.00in /  0mm 30.0 W/m2
07:19 59.5 °F /  15.3 °C 24.6 °F /  -4.1 °C 30.15in /  1020.9hPa Calm   1.0mph /  1.6km/h 26% 0.00in /  0mm 30.0 W/m2
07:24 60.1 °F /  15.6 °C 25.2 °F /  -3.8 °C 30.16in /  1021.2hPa Calm   1.0mph /  1.6km/h 26% 0.00in /  0mm 37.0 W/m2
07:29 60.6 °F /  15.9 °C 24.6 °F /  -4.1 °C 30.16in /  1021.2hPa Calm   2.0mph /  3.2km/h 25% 0.00in /  0mm 33.0 W/m2
07:34 61.3 °F /  16.3 °C 24.3 °F /  -4.3 °C 30.16in /  1021.2hPa Calm   3.0mph /  4.8km/h 24% 0.00in /  0mm 35.0 W/m2
07:39 62.1 °F /  16.7 °C 24.8 °F /  -4 °C 30.16in /  1021.2hPa East 0.9mph /  1.4km/h 2.0mph /  3.2km/h 24% 0.00in /  0mm 37.0 W/m2
07:44 63.0 °F /  17.2 °C 24.6 °F /  -4.1 °C 30.16in /  1021.2hPa Calm   2.0mph /  3.2km/h 23% 0.00in /  0mm 39.0 W/m2
07:49 63.9 °F /  17.7 °C 24.3 °F /  -4.3 °C 30.16in /  1021.2hPa Calm   3.0mph /  4.8km/h 22% 0.00in /  0mm 40.0 W/m2
07:54 64.8 °F /  18.2 °C 23.9 °F /  -4.5 °C 30.16in /  1021.2hPa East 0.9mph /  1.4km/h 2.0mph /  3.2km/h 21% 0.00in /  0mm 40.0 W/m2
08:00 65.8 °F /  18.8 °C 23.7 °F /  -4.6 °C 30.16in /  1021.2hPa Calm   2.0mph /  3.2km/h 20% 0.00in /  0mm 44.0 W/m2
08:05 66.6 °F /  19.2 °C 24.3 °F /  -4.3 °C 30.16in /  1021.2hPa Calm     20% 0.00in /  0mm 51.0 W/m2
08:11 67.5 °F /  19.7 °C 23.7 °F /  -4.6 °C 30.16in /  1021.2hPa Calm     19% 0.00in /  0mm 60.0 W/m2
08:16 68.4 °F /  20.2 °C 24.4 °F /  -4.2 °C 30.16in /  1021.2hPa Calm   1.0mph /  1.6km/h 19% 0.00in /  0mm 436.0 W/m2
08:21 69.3 °F /  20.7 °C 23.9 °F /  -4.5 °C 30.15in /  1020.9hPa SE 0.9mph /  1.4km/h 2.0mph /  3.2km/h 18% 0.00in /  0mm 459.0 W/m2
08:27 70.0 °F /  21.1 °C 23.2 °F /  -4.9 °C 30.15in /  1020.9hPa WSW 0.9mph /  1.4km/h 2.0mph /  3.2km/h 17% 0.00in /  0mm 485.0 W/m2
08:32 70.9 °F /  21.6 °C 23.9 °F /  -4.5 °C 30.15in /  1020.9hPa WSW 0.9mph /  1.4km/h 1.0mph /  1.6km/h 17% 0.00in /  0mm 506.0 W/m2
08:37 71.8 °F /  22.1 °C 21.6 °F /  -5.8 °C 30.15in /  1020.9hPa Calm   1.0mph /  1.6km/h 15% 0.00in /  0mm 527.0 W/m2
08:42 72.7 °F /  22.6 °C 22.3 °F /  -5.4 °C 30.15in /  1020.9hPa Calm   3.0mph /  4.8km/h 15% 0.00in /  0mm 545.0 W/m2
08:47 73.6 °F /  23.1 °C 21.4 °F /  -5.9 °C 30.15in /  1020.9hPa SSW 0.9mph /  1.4km/h 2.0mph /  3.2km/h 14% 0.00in /  0mm 566.0 W/m2
08:53 74.1 °F /  23.4 °C 21.9 °F /  -5.6 °C 30.15in /  1020.9hPa Calm   2.0mph /  3.2km/h 14% 0.00in /  0mm 585.0 W/m2
08:58 74.8 °F /  23.8 °C 18.9 °F /  -7.3 °C 30.15in /  1020.9hPa Calm   1.0mph /  1.6km/h 12% 0.00in /  0mm 605.0 W/m2
09:03 75.4 °F /  24.1 °C 17.2 °F /  -8.2 °C 30.15in /  1020.9hPa SW 0.9mph /  1.4km/h 2.0mph /  3.2km/h 11% 0.00in /  0mm 624.0 W/m2
09:08 75.7 °F /  24.3 °C 17.4 °F /  -8.1 °C 30.15in /  1020.9hPa WSW 2.0mph /  3.2km/h 2.0mph /  3.2km/h 11% 0.00in /  0mm 640.0 W/m2
09:13 76.1 °F /  24.5 °C 10.6 °F /  -11.9 °C 30.15in /  1020.9hPa West 2.0mph /  3.2km/h 5.0mph /  8km/h 8% 0.00in /  0mm 657.0 W/m2
09:18 76.3 °F /  24.6 °C 13.3 °F /  -10.4 °C 30.15in /  1020.9hPa South 2.0mph /  3.2km/h 2.0mph /  3.2km/h 9% 0.00in /  0mm 680.0 W/m2
09:23 76.5 °F /  24.7 °C 13.5 °F /  -10.3 °C 30.15in /  1020.9hPa Calm   3.0mph /  4.8km/h 9% 0.00in /  0mm 696.0 W/m2
09:28 77.4 °F /  25.2 °C 16.5 °F /  -8.6 °C 30.15in /  1020.9hPa West 0.9mph /  1.4km/h 3.0mph /  4.8km/h 10% 0.00in /  0mm 712.0 W/m2
09:33 77.7 °F /  25.4 °C 16.9 °F /  -8.4 °C 30.15in /  1020.9hPa Calm   1.0mph /  1.6km/h 10% 0.00in /  0mm 724.0 W/m2
09:38 78.1 °F /  25.6 °C 14.7 °F /  -9.6 °C 30.15in /  1020.9hPa Calm   6.0mph /  9.7km/h 9% 0.00in /  0mm 740.0 W/m2
09:44 78.4 °F /  25.8 °C 14.9 °F /  -9.5 °C 30.15in /  1020.9hPa WSW 0.9mph /  1.4km/h 2.0mph /  3.2km/h 9% 0.00in /  0mm 756.0 W/m2
09:49 79.0 °F /  26.1 °C 15.3 °F /  -9.3 °C 30.15in /  1020.9hPa WSW 2.0mph /  3.2km/h 5.0mph /  8km/h 9% 0.00in /  0mm 772.0 W/m2
09:54 79.2 °F /  26.2 °C 12.7 °F /  -10.7 °C 30.15in /  1020.9hPa SW 2.0mph /  3.2km/h 4.0mph /  6.4km/h 8% 0.00in /  0mm 788.0 W/m2
09:59 79.2 °F /  26.2 °C 12.7 °F /  -10.7 °C 30.14in /  1020.5hPa SSW 2.0mph /  3.2km/h 2.0mph /  3.2km/h 8% 0.00in /  0mm 796.0 W/m2
10:04 79.5 °F /  26.4 °C 15.8 °F /  -9 °C 30.14in /  1020.5hPa Calm   4.0mph /  6.4km/h 9% 0.00in /  0mm 812.0 W/m2
10:09 80.1 °F /  26.7 °C 13.5 °F /  -10.3 °C 30.14in /  1020.5hPa NNE 2.0mph /  3.2km/h 5.0mph /  8km/h 8% 0.00in /  0mm 826.0 W/m2
10:14 81.0 °F /  27.2 °C 11.1 °F /  -11.6 °C 30.14in /  1020.5hPa Calm   1.0mph /  1.6km/h 7% 0.00in /  0mm 838.0 W/m2
10:19 81.1 °F /  27.3 °C 11.3 °F /  -11.5 °C 30.14in /  1020.5hPa WNW 2.0mph /  3.2km/h 3.0mph /  4.8km/h 7% 0.00in /  0mm 854.0 W/m2
10:24 81.9 °F /  27.7 °C 11.8 °F /  -11.2 °C 30.14in /  1020.5hPa NW 0.9mph /  1.4km/h 5.0mph /  8km/h 7% 0.00in /  0mm 868.0 W/m2
10:29 82.2 °F /  27.9 °C 8.6 °F /  -13 °C 30.13in /  1020.2hPa SW 0.9mph /  1.4km/h 3.0mph /  4.8km/h 6% 0.00in /  0mm 884.0 W/m2
10:35 82.6 °F /  28.1 °C 8.8 °F /  -12.9 °C 30.13in /  1020.2hPa North 2.0mph /  3.2km/h 5.0mph /  8km/h 6% 0.00in /  0mm 891.0 W/m2
10:40 83.5 °F /  28.6 °C 9.5 °F /  -12.5 °C 30.13in /  1020.2hPa West 6.9mph /  11.1km/h 7.0mph /  11.3km/h 6% 0.00in /  0mm 907.0 W/m2
10:45 84.0 °F /  28.9 °C 5.9 °F /  -14.5 °C 30.13in /  1020.2hPa WNW 2.0mph /  3.2km/h 6.0mph /  9.7km/h 5% 0.00in /  0mm 918.0 W/m2
10:50 84.6 °F /  29.2 °C 6.3 °F /  -14.3 °C 30.13in /  1020.2hPa WSW 4.9mph /  7.9km/h 11.0mph /  17.7km/h 5% 0.00in /  0mm 928.0 W/m2
10:55 84.6 °F /  29.2 °C 6.3 °F /  -14.3 °C 30.12in /  1019.9hPa West 0.9mph /  1.4km/h 8.0mph /  12.9km/h 5% 0.00in /  0mm 939.0 W/m2
11:00 84.6 °F /  29.2 °C 6.3 °F /  -14.3 °C 30.13in /  1020.2hPa West 0.9mph /  1.4km/h 7.0mph /  11.3km/h 5% 0.00in /  0mm 949.0 W/m2
11:05 84.4 °F /  29.1 °C 1.2 °F /  -17.1 °C 30.13in /  1020.2hPa WSW 2.0mph /  3.2km/h 10.0mph /  16.1km/h 4% 0.00in /  0mm 951.0 W/m2
11:10 84.6 °F /  29.2 °C 6.3 °F /  -14.3 °C 30.13in /  1020.2hPa Calm   5.0mph /  8km/h 5% 0.00in /  0mm 967.0 W/m2
11:15 84.9 °F /  29.4 °C 1.6 °F /  -16.9 °C 30.12in /  1019.9hPa Calm   3.0mph /  4.8km/h 4% 0.00in /  0mm 983.0 W/m2
11:21 85.3 °F /  29.6 °C 10.8 °F /  -11.8 °C 30.12in /  1019.9hPa West 4.9mph /  7.9km/h 15.0mph /  24.1km/h 6% 0.00in /  0mm 984.0 W/m2
11:26 85.6 °F /  29.8 °C 7.0 °F /  -13.9 °C 30.11in /  1019.5hPa West 2.0mph /  3.2km/h 7.0mph /  11.3km/h 5% 0.00in /  0mm 991.0 W/m2
11:31 86.2 °F /  30.1 °C 7.3 °F /  -13.7 °C 30.11in /  1019.5hPa WNW 2.0mph /  3.2km/h 8.0mph /  12.9km/h 5% 0.00in /  0mm 998.0 W/m2
11:35 86.7 °F /  30.4 °C 2.8 °F /  -16.2 °C 30.12in /  1019.9hPa NNW 4.0mph /  6.4km/h 6.0mph /  9.7km/h 4% 0.00in /  0mm 1004.0 W/m2
11:40 87.3 °F /  30.7 °C 3.2 °F /  -16 °C 30.11in /  1019.5hPa West 2.9mph /  4.7km/h 7.0mph /  11.3km/h 4% 0.00in /  0mm 1007.0 W/m2
11:45 87.3 °F /  30.7 °C 3.2 °F /  -16 °C 30.11in /  1019.5hPa NW 2.0mph /  3.2km/h 11.0mph /  17.7km/h 4% 0.00in /  0mm 1005.0 W/m2
11:50 87.3 °F /  30.7 °C 8.1 °F /  -13.3 °C 30.11in /  1019.5hPa NW 0.9mph /  1.4km/h 11.0mph /  17.7km/h 5% 0.00in /  0mm 1009.0 W/m2
11:55 87.6 °F /  30.9 °C 8.4 °F /  -13.1 °C 30.11in /  1019.5hPa North 2.9mph /  4.7km/h 3.0mph /  4.8km/h 5% 0.00in /  0mm 1013.0 W/m2
12:00 88.3 °F /  31.3 °C 8.8 °F /  -12.9 °C 30.11in /  1019.5hPa NW 13.0mph /  20.9km/h 13.0mph /  20.9km/h 5% 0.00in /  0mm 1005.0 W/m2
12:05 88.3 °F /  31.3 °C 8.8 °F /  -12.9 °C 30.11in /  1019.5hPa WSW 6.9mph /  11.1km/h 13.0mph /  20.9km/h 5% 0.00in /  0mm 1018.0 W/m2
12:11 87.8 °F /  31 °C 8.4 °F /  -13.1 °C 30.11in /  1019.5hPa Calm   5.0mph /  8km/h 5% 0.00in /  0mm 1021.0 W/m2
12:16 88.0 °F /  31.1 °C 8.6 °F /  -13 °C 30.11in /  1019.5hPa NW 0.9mph /  1.4km/h 9.0mph /  14.5km/h 5% 0.00in /  0mm 1013.0 W/m2
12:21 88.0 °F /  31.1 °C 12.7 °F /  -10.7 °C 30.11in /  1019.5hPa NNW 2.0mph /  3.2km/h 10.0mph /  16.1km/h 6% 0.00in /  0mm 1023.0 W/m2
12:26 88.0 °F /  31.1 °C 12.7 °F /  -10.7 °C 30.10in /  1019.2hPa WSW 8.9mph /  14.3km/h 13.0mph /  20.9km/h 6% 0.00in /  0mm 1027.0 W/m2
12:31 88.0 °F /  31.1 °C 12.7 °F /  -10.7 °C 30.10in /  1019.2hPa WSW 4.9mph /  7.9km/h 14.0mph /  22.5km/h 6% 0.00in /  0mm 1027.0 W/m2
12:36 87.6 °F /  30.9 °C 12.4 °F /  -10.9 °C 30.10in /  1019.2hPa SW 2.0mph /  3.2km/h 7.0mph /  11.3km/h 6% 0.00in /  0mm 1034.0 W/m2
12:41 87.6 °F /  30.9 °C 12.4 °F /  -10.9 °C 30.10in /  1019.2hPa West 6.9mph /  11.1km/h 10.0mph /  16.1km/h 6% 0.00in /  0mm 1016.0 W/m2
12:46 87.6 °F /  30.9 °C 12.4 °F /  -10.9 °C 30.10in /  1019.2hPa SW 8.9mph /  14.3km/h 13.0mph /  20.9km/h 6% 0.00in /  0mm 1027.0 W/m2
12:52 88.2 °F /  31.2 °C 12.9 °F /  -10.6 °C 30.10in /  1019.2hPa Calm   9.0mph /  14.5km/h 6% 0.00in /  0mm 1016.0 W/m2
12:57 88.7 °F /  31.5 °C 16.7 °F /  -8.5 °C 30.10in /  1019.2hPa West 8.9mph /  14.3km/h 9.0mph /  14.5km/h 7% 0.00in /  0mm 1011.0 W/m2
13:02 89.2 °F /  31.8 °C 17.1 °F /  -8.3 °C 30.09in /  1018.8hPa NNW 4.0mph /  6.4km/h 11.0mph /  17.7km/h 7% 0.00in /  0mm 1005.0 W/m2
13:07 89.1 °F /  31.7 °C 13.5 °F /  -10.3 °C 30.10in /  1019.2hPa West 6.9mph /  11.1km/h 14.0mph /  22.5km/h 6% 0.00in /  0mm 1002.0 W/m2
13:12 88.3 °F /  31.3 °C 12.9 °F /  -10.6 °C 30.09in /  1018.8hPa SSW 4.9mph /  7.9km/h 8.0mph /  12.9km/h 6% 0.00in /  0mm 1002.0 W/m2
13:17 88.2 °F /  31.2 °C 12.9 °F /  -10.6 °C 30.09in /  1018.8hPa WNW 0.9mph /  1.4km/h 12.0mph /  19.3km/h 6% 0.00in /  0mm 995.0 W/m2
13:22 88.5 °F /  31.4 °C 13.1 °F /  -10.5 °C 30.09in /  1018.8hPa SW 2.9mph /  4.7km/h 11.0mph /  17.7km/h 6% 0.00in /  0mm 990.0 W/m2
13:28 88.7 °F /  31.5 °C 13.3 °F /  -10.4 °C 30.09in /  1018.8hPa West 2.9mph /  4.7km/h 11.0mph /  17.7km/h 6% 0.00in /  0mm 990.0 W/m2
13:33 88.5 °F /  31.4 °C 16.7 °F /  -8.5 °C 30.10in /  1019.2hPa West 4.9mph /  7.9km/h 13.0mph /  20.9km/h 7% 0.00in /  0mm 979.0 W/m2
13:38 88.3 °F /  31.3 °C 16.5 °F /  -8.6 °C 30.09in /  1018.8hPa West 2.9mph /  4.7km/h 9.0mph /  14.5km/h 7% 0.00in /  0mm 974.0 W/m2
13:44 88.3 °F /  31.3 °C 16.5 °F /  -8.6 °C 30.09in /  1018.8hPa West 2.9mph /  4.7km/h 12.0mph /  19.3km/h 7% 0.00in /  0mm 962.0 W/m2
13:49 88.3 °F /  31.3 °C 16.5 °F /  -8.6 °C 30.09in /  1018.8hPa NW 0.9mph /  1.4km/h 11.0mph /  17.7km/h 7% 0.00in /  0mm 949.0 W/m2
13:54 88.9 °F /  31.6 °C 16.9 °F /  -8.4 °C 30.09in /  1018.8hPa NE 6.9mph /  11.1km/h 17.0mph /  27.4km/h 7% 0.00in /  0mm 940.0 W/m2
13:59 89.2 °F /  31.8 °C 17.1 °F /  -8.3 °C 30.09in /  1018.8hPa WSW 11.0mph /  17.7km/h 11.0mph /  17.7km/h 7% 0.00in /  0mm 933.0 W/m2
14:04 89.1 °F /  31.7 °C 17.1 °F /  -8.3 °C 30.09in /  1018.8hPa WSW 2.9mph /  4.7km/h 14.0mph /  22.5km/h 7% 0.00in /  0mm 930.0 W/m2
14:09 87.8 °F /  31 °C 19.2 °F /  -7.1 °C 30.09in /  1018.8hPa WSW 8.1mph /  13km/h 12.0mph /  19.3km/h 8% 0.00in /  0mm 918.0 W/m2
14:14 88.0 °F /  31.1 °C 19.4 °F /  -7 °C 30.09in /  1018.8hPa WNW 4.0mph /  6.4km/h 16.0mph /  25.7km/h 8% 0.00in /  0mm 909.0 W/m2
14:19 88.2 °F /  31.2 °C 19.4 °F /  -7 °C 30.09in /  1018.8hPa Calm   13.0mph /  20.9km/h 8% 0.00in /  0mm 896.0 W/m2
14:24 88.7 °F /  31.5 °C 19.9 °F /  -6.7 °C 30.09in /  1018.8hPa NW 6.0mph /  9.7km/h 8.0mph /  12.9km/h 8% 0.00in /  0mm 891.0 W/m2
14:29 88.9 °F /  31.6 °C 16.9 °F /  -8.4 °C 30.09in /  1018.8hPa West 8.1mph /  13km/h 13.0mph /  20.9km/h 7% 0.00in /  0mm 875.0 W/m2
14:34 89.1 °F /  31.7 °C 17.1 °F /  -8.3 °C 30.08in /  1018.5hPa West 2.0mph /  3.2km/h 5.0mph /  8km/h 7% 0.00in /  0mm 870.0 W/m2
14:40 88.9 °F /  31.6 °C 16.9 °F /  -8.4 °C 30.08in /  1018.5hPa West 6.0mph /  9.7km/h 14.0mph /  22.5km/h 7% 0.00in /  0mm 856.0 W/m2
14:45 88.9 °F /  31.6 °C 16.9 °F /  -8.4 °C 30.08in /  1018.5hPa WSW 0.9mph /  1.4km/h 5.0mph /  8km/h 7% 0.00in /  0mm 844.0 W/m2
14:50 89.6 °F /  32 °C 17.4 °F /  -8.1 °C 30.08in /  1018.5hPa WNW 2.9mph /  4.7km/h 7.0mph /  11.3km/h 7% 0.00in /  0mm 828.0 W/m2
14:55 89.8 °F /  32.1 °C 17.6 °F /  -8 °C 30.08in /  1018.5hPa WNW 4.0mph /  6.4km/h 18.0mph /  29km/h 7% 0.00in /  0mm 819.0 W/m2
15:00 89.1 °F /  31.7 °C 17.1 °F /  -8.3 °C 30.08in /  1018.5hPa North 6.9mph /  11.1km/h 9.0mph /  14.5km/h 7% 0.00in /  0mm 805.0 W/m2
15:05 89.2 °F /  31.8 °C 17.1 °F /  -8.3 °C 30.08in /  1018.5hPa West 6.9mph /  11.1km/h 12.0mph /  19.3km/h 7% 0.00in /  0mm 788.0 W/m2
15:11 88.9 °F /  31.6 °C 16.9 °F /  -8.4 °C 30.08in /  1018.5hPa WNW 2.9mph /  4.7km/h 14.0mph /  22.5km/h 7% 0.00in /  0mm 775.0 W/m2
15:16 89.1 °F /  31.7 °C 17.1 °F /  -8.3 °C 30.08in /  1018.5hPa WSW 8.1mph /  13km/h 10.0mph /  16.1km/h 7% 0.00in /  0mm 758.0 W/m2
15:22 89.4 °F /  31.9 °C 17.2 °F /  -8.2 °C 30.08in /  1018.5hPa West 6.9mph /  11.1km/h 10.0mph /  16.1km/h 7% 0.00in /  0mm 747.0 W/m2
15:27 89.2 °F /  31.8 °C 17.1 °F /  -8.3 °C 30.08in /  1018.5hPa SW 4.0mph /  6.4km/h 15.0mph /  24.1km/h 7% 0.00in /  0mm 733.0 W/m2
15:32 89.1 °F /  31.7 °C 17.1 °F /  -8.3 °C 30.08in /  1018.5hPa NNW 0.9mph /  1.4km/h 10.0mph /  16.1km/h 7% 0.00in /  0mm 715.0 W/m2
15:37 88.7 °F /  31.5 °C 16.7 °F /  -8.5 °C 30.07in /  1018.2hPa West 0.9mph /  1.4km/h 8.0mph /  12.9km/h 7% 0.00in /  0mm 700.0 W/m2
15:42 88.5 °F /  31.4 °C 16.7 °F /  -8.5 °C 30.08in /  1018.5hPa WNW 8.1mph /  13km/h 10.0mph /  16.1km/h 7% 0.00in /  0mm 686.0 W/m2
15:47 88.2 °F /  31.2 °C 16.3 °F /  -8.7 °C 30.07in /  1018.2hPa SW 4.9mph /  7.9km/h 9.0mph /  14.5km/h 7% 0.00in /  0mm 663.0 W/m2
15:52 88.3 °F /  31.3 °C 16.5 °F /  -8.6 °C 30.08in /  1018.5hPa West 4.9mph /  7.9km/h 12.0mph /  19.3km/h 7% 0.00in /  0mm 650.0 W/m2
15:58 88.0 °F /  31.1 °C 16.2 °F /  -8.8 °C 30.07in /  1018.2hPa West 2.9mph /  4.7km/h 12.0mph /  19.3km/h 7% 0.00in /  0mm 624.0 W/m2
16:03 87.8 °F /  31 °C 16.2 °F /  -8.8 °C 30.07in /  1018.2hPa West 4.9mph /  7.9km/h 9.0mph /  14.5km/h 7% 0.00in /  0mm 613.0 W/m2
16:08 88.2 °F /  31.2 °C 16.3 °F /  -8.7 °C 30.07in /  1018.2hPa West 8.1mph /  13km/h 18.0mph /  29km/h 7% 0.00in /  0mm 596.0 W/m2
16:14 87.8 °F /  31 °C 16.2 °F /  -8.8 °C 30.08in /  1018.5hPa West 10.1mph /  16.3km/h 14.0mph /  22.5km/h 7% 0.00in /  0mm 575.0 W/m2
16:19 87.1 °F /  30.6 °C 15.6 °F /  -9.1 °C 30.07in /  1018.2hPa WSW 4.0mph /  6.4km/h 17.0mph /  27.4km/h 7% 0.00in /  0mm 557.0 W/m2
16:24 87.1 °F /  30.6 °C 15.6 °F /  -9.1 °C 30.07in /  1018.2hPa NW 6.9mph /  11.1km/h 15.0mph /  24.1km/h 7% 0.00in /  0mm 543.0 W/m2
16:30 86.7 °F /  30.4 °C 15.3 °F /  -9.3 °C 30.08in /  1018.5hPa WNW 2.0mph /  3.2km/h 11.0mph /  17.7km/h 7% 0.00in /  0mm 513.0 W/m2
16:35 87.1 °F /  30.6 °C 15.6 °F /  -9.1 °C 30.08in /  1018.5hPa West 6.0mph /  9.7km/h 16.0mph /  25.7km/h 7% 0.00in /  0mm 499.0 W/m2
16:40 87.1 °F /  30.6 °C 15.6 °F /  -9.1 °C 30.08in /  1018.5hPa WSW 2.9mph /  4.7km/h 12.0mph /  19.3km/h 7% 0.00in /  0mm 480.0 W/m2
16:45 87.1 °F /  30.6 °C 15.6 °F /  -9.1 °C 30.08in /  1018.5hPa West 4.9mph /  7.9km/h 8.0mph /  12.9km/h 7% 0.00in /  0mm 448.0 W/m2
16:50 87.1 °F /  30.6 °C 15.6 °F /  -9.1 °C 30.08in /  1018.5hPa WNW 0.9mph /  1.4km/h 6.0mph /  9.7km/h 7% 0.00in /  0mm 432.0 W/m2
16:55 87.1 °F /  30.6 °C 15.6 °F /  -9.1 °C 30.08in /  1018.5hPa WSW 6.9mph /  11.1km/h 14.0mph /  22.5km/h 7% 0.00in /  0mm 418.0 W/m2
17:00 86.5 °F /  30.3 °C 15.3 °F /  -9.3 °C 30.08in /  1018.5hPa West 2.0mph /  3.2km/h 8.0mph /  12.9km/h 7% 0.00in /  0mm 401.0 W/m2
17:05 86.7 °F /  30.4 °C 15.3 °F /  -9.3 °C 30.08in /  1018.5hPa North 2.9mph /  4.7km/h 5.0mph /  8km/h 7% 0.00in /  0mm 380.0 W/m2
17:10 87.4 °F /  30.8 °C 15.8 °F /  -9 °C 30.08in /  1018.5hPa WNW 4.9mph /  7.9km/h 8.0mph /  12.9km/h 7% 0.00in /  0mm 362.0 W/m2
17:15 87.8 °F /  31 °C 16.2 °F /  -8.8 °C 30.08in /  1018.5hPa West 0.9mph /  1.4km/h 13.0mph /  20.9km/h 7% 0.00in /  0mm 341.0 W/m2
17:20 87.4 °F /  30.8 °C 15.8 °F /  -9 °C 30.08in /  1018.5hPa WSW 0.9mph /  1.4km/h 7.0mph /  11.3km/h 7% 0.00in /  0mm 322.0 W/m2
17:25 86.7 °F /  30.4 °C 15.3 °F /  -9.3 °C 30.09in /  1018.8hPa West 6.9mph /  11.1km/h 9.0mph /  14.5km/h 7% 0.00in /  0mm 297.0 W/m2
17:30 86.4 °F /  30.2 °C 15.1 °F /  -9.4 °C 30.09in /  1018.8hPa WNW 11.0mph /  17.7km/h 11.0mph /  17.7km/h 7% 0.00in /  0mm 281.0 W/m2
17:36 85.8 °F /  29.9 °C 14.7 °F /  -9.6 °C 30.09in /  1018.8hPa Calm   7.0mph /  11.3km/h 7% 0.00in /  0mm 255.0 W/m2
17:41 85.8 °F /  29.9 °C 14.7 °F /  -9.6 °C 30.09in /  1018.8hPa WNW 0.9mph /  1.4km/h 7.0mph /  11.3km/h 7% 0.00in /  0mm 236.0 W/m2
17:46 85.8 °F /  29.9 °C 14.7 °F /  -9.6 °C 30.09in /  1018.8hPa NW 0.9mph /  1.4km/h 9.0mph /  14.5km/h 7% 0.00in /  0mm 185.0 W/m2
17:52 85.8 °F /  29.9 °C 14.7 °F /  -9.6 °C 30.09in /  1018.8hPa WNW 2.9mph /  4.7km/h 7.0mph /  11.3km/h 7% 0.00in /  0mm 195.0 W/m2
17:57 85.8 °F /  29.9 °C 14.7 °F /  -9.6 °C 30.09in /  1018.8hPa NNE 2.0mph /  3.2km/h 8.0mph /  12.9km/h 7% 0.00in /  0mm 178.0 W/m2
18:02 85.6 °F /  29.8 °C 14.5 °F /  -9.7 °C 30.09in /  1018.8hPa WNW 2.9mph /  4.7km/h 6.0mph /  9.7km/h 7% 0.00in /  0mm 155.0 W/m2
18:08 84.9 °F /  29.4 °C 14.0 °F /  -10 °C 30.10in /  1019.2hPa NW 4.0mph /  6.4km/h 9.0mph /  14.5km/h 7% 0.00in /  0mm 134.0 W/m2
18:13 84.6 °F /  29.2 °C 13.6 °F /  -10.2 °C 30.10in /  1019.2hPa West 8.9mph /  14.3km/h 13.0mph /  20.9km/h 7% 0.00in /  0mm 114.0 W/m2
18:18 84.2 °F /  29 °C 13.5 °F /  -10.3 °C 30.10in /  1019.2hPa WNW 2.9mph /  4.7km/h 8.0mph /  12.9km/h 7% 0.00in /  0mm 91.0 W/m2
18:23 83.8 °F /  28.8 °C 13.3 °F /  -10.4 °C 30.10in /  1019.2hPa West 2.0mph /  3.2km/h 7.0mph /  11.3km/h 7% 0.00in /  0mm 72.0 W/m2
18:28 83.7 °F /  28.7 °C 13.1 °F /  -10.5 °C 30.10in /  1019.2hPa West 4.9mph /  7.9km/h 5.0mph /  8km/h 7% 0.00in /  0mm 54.0 W/m2
18:34 83.1 °F /  28.4 °C 12.7 °F /  -10.7 °C 30.10in /  1019.2hPa West 2.0mph /  3.2km/h 8.0mph /  12.9km/h 7% 0.00in /  0mm 39.0 W/m2
18:39 82.8 °F /  28.2 °C 12.4 °F /  -10.9 °C 30.11in /  1019.5hPa NW 2.0mph /  3.2km/h 7.0mph /  11.3km/h 7% 0.00in /  0mm 26.0 W/m2
18:44 82.2 °F /  27.9 °C 12.0 °F /  -11.1 °C 30.11in /  1019.5hPa West 0.9mph /  1.4km/h 9.0mph /  14.5km/h 7% 0.00in /  0mm 19.0 W/m2
18:50 81.1 °F /  27.3 °C 14.2 °F /  -9.9 °C 30.11in /  1019.5hPa NNW 2.0mph /  3.2km/h 8.0mph /  12.9km/h 8% 0.00in /  0mm 11.0 W/m2
18:55 80.6 °F /  27 °C 13.8 °F /  -10.1 °C 30.11in /  1019.5hPa Calm   7.0mph /  11.3km/h 8% 0.00in /  0mm 7.0 W/m2
19:00 80.1 °F /  26.7 °C 13.5 °F /  -10.3 °C 30.11in /  1019.5hPa WNW 0.9mph /  1.4km/h 7.0mph /  11.3km/h 8% 0.00in /  0mm 0.0 W/m2
19:06 79.5 °F /  26.4 °C 13.1 °F /  -10.5 °C 30.11in /  1019.5hPa Calm   3.0mph /  4.8km/h 8% 0.00in /  0mm 0.0 W/m2
19:11 79.3 °F /  26.3 °C 12.9 °F /  -10.6 °C 30.11in /  1019.5hPa Calm   8.0mph /  12.9km/h 8% 0.00in /  0mm 0.0 W/m2
19:16 79.0 °F /  26.1 °C 12.6 °F /  -10.8 °C 30.12in /  1019.9hPa Calm   5.0mph /  8km/h 8% 0.00in /  0mm 0.0 W/m2
19:22 78.6 °F /  25.9 °C 12.4 °F /  -10.9 °C 30.12in /  1019.9hPa WSW 2.0mph /  3.2km/h 10.0mph /  16.1km/h 8% 0.00in /  0mm 0.0 W/m2
19:27 78.3 °F /  25.7 °C 14.7 °F /  -9.6 °C 30.12in /  1019.9hPa Calm   3.0mph /  4.8km/h 9% 0.00in /  0mm 0.0 W/m2
19:32 78.1 °F /  25.6 °C 14.7 °F /  -9.6 °C 30.12in /  1019.9hPa Calm   4.0mph /  6.4km/h 9% 0.00in /  0mm 0.0 W/m2
19:37 77.7 °F /  25.4 °C 14.4 °F /  -9.8 °C 30.12in /  1019.9hPa West 0.9mph /  1.4km/h 3.0mph /  4.8km/h 9% 0.00in /  0mm 0.0 W/m2
19:42 77.5 °F /  25.3 °C 14.2 °F /  -9.9 °C 30.13in /  1020.2hPa Calm   2.0mph /  3.2km/h 9% 0.00in /  0mm 0.0 W/m2
19:47 77.4 °F /  25.2 °C 14.2 °F /  -9.9 °C 30.13in /  1020.2hPa West 0.9mph /  1.4km/h 2.0mph /  3.2km/h 9% 0.00in /  0mm 0.0 W/m2
19:52 77.2 °F /  25.1 °C 14.0 °F /  -10 °C 30.13in /  1020.2hPa Calm     9% 0.00in /  0mm 0.0 W/m2
19:57 76.8 °F /  24.9 °C 16.2 °F /  -8.8 °C 30.14in /  1020.5hPa Calm     10% 0.00in /  0mm 0.0 W/m2
20:03 76.5 °F /  24.7 °C 15.8 °F /  -9 °C 30.14in /  1020.5hPa Calm     10% 0.00in /  0mm 0.0 W/m2
20:08 76.3 °F /  24.6 °C 15.6 °F /  -9.1 °C 30.14in /  1020.5hPa Calm     10% 0.00in /  0mm 0.0 W/m2
20:13 75.9 °F /  24.4 °C 15.4 °F /  -9.2 °C 30.14in /  1020.5hPa Calm   3.0mph /  4.8km/h 10% 0.00in /  0mm 0.0 W/m2
20:19 75.4 °F /  24.1 °C 15.1 °F /  -9.4 °C 30.14in /  1020.5hPa Calm     10% 0.00in /  0mm 0.0 W/m2
20:24 75.0 °F /  23.9 °C 14.7 °F /  -9.6 °C 30.15in /  1020.9hPa WSW 2.9mph /  4.7km/h 8.0mph /  12.9km/h 10% 0.00in /  0mm 0.0 W/m2
20:30 74.8 °F /  23.8 °C 14.5 °F /  -9.7 °C 30.15in /  1020.9hPa Calm   2.0mph /  3.2km/h 10% 0.00in /  0mm 0.0 W/m2
20:35 74.7 °F /  23.7 °C 14.5 °F /  -9.7 °C 30.15in /  1020.9hPa Calm   2.0mph /  3.2km/h 10% 0.00in /  0mm 0.0 W/m2
20:40 74.5 °F /  23.6 °C 16.5 °F /  -8.6 °C 30.15in /  1020.9hPa Calm   1.0mph /  1.6km/h 11% 0.00in /  0mm 0.0 W/m2
20:45 74.1 °F /  23.4 °C 16.2 °F /  -8.8 °C 30.15in /  1020.9hPa Calm     11% 0.00in /  0mm 0.0 W/m2
20:50 73.8 °F /  23.2 °C 18.0 °F /  -7.8 °C 30.16in /  1021.2hPa Calm     12% 0.00in /  0mm 0.0 W/m2
20:56 73.6 °F /  23.1 °C 17.8 °F /  -7.9 °C 30.16in /  1021.2hPa Calm   2.0mph /  3.2km/h 12% 0.00in /  0mm 0.0 W/m2
21:01 73.0 °F /  22.8 °C 19.2 °F /  -7.1 °C 30.16in /  1021.2hPa Calm   1.0mph /  1.6km/h 13% 0.00in /  0mm 0.0 W/m2
21:06 72.9 °F /  22.7 °C 19.2 °F /  -7.1 °C 30.16in /  1021.2hPa Calm     13% 0.00in /  0mm 0.0 W/m2
21:12 72.7 °F /  22.6 °C 20.7 °F /  -6.3 °C 30.16in /  1021.2hPa Calm   1.0mph /  1.6km/h 14% 0.00in /  0mm 0.0 W/m2
21:17 72.3 °F /  22.4 °C 20.5 °F /  -6.4 °C 30.16in /  1021.2hPa Calm     14% 0.00in /  0mm 0.0 W/m2
21:21 72.0 °F /  22.2 °C 20.1 °F /  -6.6 °C 30.16in /  1021.2hPa Calm     14% 0.00in /  0mm 0.0 W/m2
21:26 71.8 °F /  22.1 °C 21.6 °F /  -5.8 °C 30.16in /  1021.2hPa Calm     15% 0.00in /  0mm 0.0 W/m2
21:31 71.2 °F /  21.8 °C 21.2 °F /  -6 °C 30.16in /  1021.2hPa Calm     15% 0.00in /  0mm 0.0 W/m2
21:37 70.9 °F /  21.6 °C 20.8 °F /  -6.2 °C 30.17in /  1021.6hPa Calm     15% 0.00in /  0mm 0.0 W/m2
21:42 70.3 °F /  21.3 °C 22.1 °F /  -5.5 °C 30.17in /  1021.6hPa Calm     16% 0.00in /  0mm 0.0 W/m2
21:48 70.2 °F /  21.2 °C 21.9 °F /  -5.6 °C 30.17in /  1021.6hPa Calm     16% 0.00in /  0mm 0.0 W/m2
21:53 70.0 °F /  21.1 °C 21.7 °F /  -5.7 °C 30.17in /  1021.6hPa Calm     16% 0.00in /  0mm 0.0 W/m2
21:58 70.0 °F /  21.1 °C 21.7 °F /  -5.7 °C 30.17in /  1021.6hPa Calm     16% 0.00in /  0mm 0.0 W/m2
22:03 69.6 °F /  20.9 °C 19.9 °F /  -6.7 °C 30.17in /  1021.6hPa Calm     15% 0.00in /  0mm 0.0 W/m2
22:09 69.1 °F /  20.6 °C 19.4 °F /  -7 °C 30.17in /  1021.6hPa Calm     15% 0.00in /  0mm 0.0 W/m2
22:14 68.4 °F /  20.2 °C 18.9 °F /  -7.3 °C 30.17in /  1021.6hPa Calm   1.0mph /  1.6km/h 15% 0.00in /  0mm 0.0 W/m2
22:19 67.6 °F /  19.8 °C 19.8 °F /  -6.8 °C 30.17in /  1021.6hPa Calm     16% 0.00in /  0mm 0.0 W/m2
22:25 66.9 °F /  19.4 °C 20.7 °F /  -6.3 °C 30.17in /  1021.6hPa Calm     17% 0.00in /  0mm 0.0 W/m2
22:30 66.4 °F /  19.1 °C 20.3 °F /  -6.5 °C 30.17in /  1021.6hPa Calm     17% 0.00in /  0mm 0.0 W/m2
22:35 66.0 °F /  18.9 °C 19.9 °F /  -6.7 °C 30.17in /  1021.6hPa Calm     17% 0.00in /  0mm 0.0 W/m2
22:41 65.7 °F /  18.7 °C 21.0 °F /  -6.1 °C 30.17in /  1021.6hPa Calm     18% 0.00in /  0mm 0.0 W/m2
22:46 65.1 °F /  18.4 °C 20.5 °F /  -6.4 °C 30.17in /  1021.6hPa Calm     18% 0.00in /  0mm 0.0 W/m2
22:52 64.9 °F /  18.3 °C 20.5 °F /  -6.4 °C 30.17in /  1021.6hPa Calm     18% 0.00in /  0mm 0.0 W/m2
22:57 64.8 °F /  18.2 °C 20.3 °F /  -6.5 °C 30.17in /  1021.6hPa Calm     18% 0.00in /  0mm 0.0 W/m2
23:02 64.4 °F /  18 °C 19.9 °F /  -6.7 °C 30.17in /  1021.6hPa Calm     18% 0.00in /  0mm 0.0 W/m2
23:07 64.0 °F /  17.8 °C 19.6 °F /  -6.9 °C 30.16in /  1021.2hPa Calm     18% 0.00in /  0mm 0.0 W/m2
23:12 63.9 °F /  17.7 °C 19.6 °F /  -6.9 °C 30.16in /  1021.2hPa Calm     18% 0.00in /  0mm 0.0 W/m2
23:17 63.7 °F /  17.6 °C 19.4 °F /  -7 °C 30.16in /  1021.2hPa Calm     18% 0.00in /  0mm 0.0 W/m2
23:22 63.3 °F /  17.4 °C 19.0 °F /  -7.2 °C 30.16in /  1021.2hPa Calm     18% 0.00in /  0mm 0.0 W/m2
23:27 63.1 °F /  17.3 °C 18.9 °F /  -7.3 °C 30.16in /  1021.2hPa Calm     18% 0.00in /  0mm 0.0 W/m2
23:33 63.0 °F /  17.2 °C 18.9 °F /  -7.3 °C 30.15in /  1020.9hPa Calm     18% 0.00in /  0mm 0.0 W/m2
23:38 62.8 °F /  17.1 °C 19.9 °F /  -6.7 °C 30.16in /  1021.2hPa Calm     19% 0.00in /  0mm 0.0 W/m2
23:43 62.4 °F /  16.9 °C 19.6 °F /  -6.9 °C 30.15in /  1020.9hPa Calm     19% 0.00in /  0mm 0.0 W/m2
23:48 62.1 °F /  16.7 °C 19.2 °F /  -7.1 °C 30.15in /  1020.9hPa Calm     19% 0.00in /  0mm 0.0 W/m2
23:53 62.1 °F /  16.7 °C 20.5 °F /  -6.4 °C 30.15in /  1020.9hPa Calm     20% 0.00in /  0mm 0.0 W/m2
23:58 61.9 °F /  16.6 °C 19.2 °F /  -7.1 °C 30.15in /  1020.9hPa Calm     19% 0.00in /  0mm 0.0 W/m2
Olympia, Windhoek, Namibia
Compliments of Weather Underground - 3.25 mb